createdAt,value
2023-05-21T00:00:34.312Z,26.07
2023-05-21T00:01:34.330Z,26.08
2023-05-21T00:02:34.456Z,26.09
2023-05-21T00:03:34.532Z,26.08
2023-05-21T00:04:34.392Z,26.07
2023-05-21T00:05:34.731Z,26.07
2023-05-21T00:06:34.523Z,26.07
2023-05-21T00:07:34.450Z,26.05
2023-05-21T00:08:34.465Z,26.04
2023-05-21T00:09:34.468Z,26.07
2023-05-21T00:10:34.467Z,26.03
2023-05-21T00:11:34.484Z,26.05
2023-05-21T00:12:34.518Z,26.04
2023-05-21T00:13:34.535Z,26.05
2023-05-21T00:14:34.552Z,26.04
2023-05-21T00:15:34.724Z,26.03
2023-05-21T00:16:34.643Z,26.05
2023-05-21T00:17:34.654Z,26.05
2023-05-21T00:18:34.636Z,26.03
2023-05-21T00:19:34.665Z,26.03
2023-05-21T00:20:34.666Z,26.00
2023-05-21T00:21:34.697Z,26.01
2023-05-21T00:22:34.699Z,26.03
2023-05-21T00:23:34.728Z,26.04
2023-05-21T00:24:34.737Z,26.01
2023-05-21T00:25:34.979Z,26.03
2023-05-21T00:26:34.794Z,26.03
2023-05-21T00:27:34.815Z,26.01
2023-05-21T00:28:34.833Z,26.04
2023-05-21T00:29:34.840Z,26.01
2023-05-21T00:30:34.873Z,26.04
2023-05-21T00:31:34.949Z,26.03
2023-05-21T00:32:34.924Z,26.00
2023-05-21T00:33:34.911Z,26.03
2023-05-21T00:34:34.948Z,26.00
2023-05-21T00:35:35.233Z,26.00
2023-05-21T00:36:34.983Z,26.01
2023-05-21T00:37:35.000Z,25.98
2023-05-21T00:38:35.054Z,26.00
2023-05-21T00:39:35.063Z,26.00
2023-05-21T00:40:35.086Z,26.00
2023-05-21T00:41:35.109Z,26.00
2023-05-21T00:42:35.133Z,25.98
2023-05-21T00:43:35.156Z,25.97
2023-05-21T00:44:35.176Z,25.97
2023-05-21T00:45:35.388Z,25.98
2023-05-21T00:46:35.301Z,25.98
2023-05-21T00:47:35.264Z,25.98
2023-05-21T00:48:35.279Z,25.98
2023-05-21T00:49:35.288Z,25.97
2023-05-21T00:50:35.328Z,25.97
2023-05-21T00:51:35.338Z,25.97
2023-05-21T00:52:35.359Z,25.95
2023-05-21T00:53:35.384Z,25.98
2023-05-21T00:54:35.424Z,25.97
2023-05-21T00:55:35.623Z,26.00
2023-05-21T00:56:35.470Z,25.95
2023-05-21T00:57:35.498Z,25.97
2023-05-21T00:58:35.508Z,25.95
2023-05-21T00:59:35.548Z,25.95
2023-05-21T01:00:35.555Z,25.97
2023-05-21T01:01:35.645Z,25.97
2023-05-21T01:02:35.704Z,25.97
2023-05-21T01:03:35.671Z,25.97
2023-05-21T01:04:35.674Z,25.93
2023-05-21T01:05:35.856Z,25.95
2023-05-21T01:06:35.736Z,25.97
2023-05-21T01:07:35.762Z,25.97
2023-05-21T01:08:35.763Z,25.97
2023-05-21T01:09:35.794Z,25.94
2023-05-21T01:10:35.831Z,25.93
2023-05-21T01:11:35.840Z,25.97
2023-05-21T01:12:35.876Z,25.94
2023-05-21T01:13:35.891Z,25.94
2023-05-21T01:14:35.910Z,25.93
2023-05-21T01:15:36.117Z,25.94
2023-05-21T01:16:35.980Z,25.94
2023-05-21T01:17:36.061Z,25.95
2023-05-21T01:18:36.053Z,25.94
2023-05-21T01:19:36.108Z,25.95
2023-05-21T01:20:36.087Z,25.97
2023-05-21T01:21:36.103Z,25.95
2023-05-21T01:22:36.156Z,25.91
2023-05-21T01:23:36.180Z,25.94
2023-05-21T01:24:36.208Z,25.93
2023-05-21T01:25:36.373Z,25.93
2023-05-21T01:26:36.270Z,25.94
2023-05-21T01:27:36.308Z,25.94
2023-05-21T01:28:36.342Z,25.91
2023-05-21T01:29:36.387Z,25.94
2023-05-21T01:30:36.405Z,25.91
2023-05-21T01:31:36.452Z,25.94
2023-05-21T01:32:36.525Z,25.91
2023-05-21T01:33:36.637Z,25.94
2023-05-21T01:34:36.536Z,25.91
2023-05-21T01:35:36.883Z,25.90
2023-05-21T01:36:36.624Z,25.93
2023-05-21T01:37:36.651Z,25.91
2023-05-21T01:38:36.657Z,25.93
2023-05-21T01:39:36.685Z,25.91
2023-05-21T01:40:36.716Z,25.91
2023-05-21T01:41:36.758Z,25.90
2023-05-21T01:42:36.790Z,25.90
2023-05-21T01:43:36.836Z,25.91
2023-05-21T01:44:36.841Z,25.93
2023-05-21T01:45:37.029Z,25.90
2023-05-21T01:46:36.946Z,25.90
2023-05-21T01:47:36.966Z,25.91
2023-05-21T01:48:36.984Z,25.91
2023-05-21T01:49:37.010Z,25.88
2023-05-21T01:50:37.028Z,25.91
2023-05-21T01:51:37.056Z,25.90
2023-05-21T01:52:37.111Z,25.90
2023-05-21T01:53:37.145Z,25.87
2023-05-21T01:54:37.180Z,25.90
2023-05-21T01:55:37.450Z,25.90
2023-05-21T01:56:37.263Z,25.90
2023-05-21T01:57:37.291Z,25.90
2023-05-21T01:58:37.318Z,25.90
2023-05-21T01:59:37.360Z,25.91
2023-05-21T02:00:37.390Z,25.87
2023-05-21T02:01:37.512Z,25.88
2023-05-21T02:02:37.512Z,25.90
2023-05-21T02:03:37.620Z,25.88
2023-05-21T02:04:37.563Z,25.91
2023-05-21T02:05:37.899Z,25.88
2023-05-21T02:06:37.652Z,25.88
2023-05-21T02:07:37.678Z,25.87
2023-05-21T02:08:37.720Z,25.87
2023-05-21T02:09:37.748Z,25.88
2023-05-21T02:10:37.782Z,25.87
2023-05-21T02:11:37.829Z,25.88
2023-05-21T02:12:37.861Z,25.87
2023-05-21T02:13:37.899Z,25.88
2023-05-21T02:14:37.945Z,25.88
2023-05-21T02:15:38.198Z,25.88
2023-05-21T02:16:38.127Z,25.87
2023-05-21T02:17:38.094Z,25.85
2023-05-21T02:18:38.110Z,25.88
2023-05-21T02:19:38.144Z,25.85
2023-05-21T02:20:38.173Z,25.85
2023-05-21T02:21:38.230Z,25.87
2023-05-21T02:22:38.298Z,25.85
2023-05-21T02:23:38.295Z,25.85
2023-05-21T02:24:38.348Z,25.83
2023-05-21T02:25:38.517Z,25.85
2023-05-21T02:26:38.401Z,25.87
2023-05-21T02:27:38.449Z,25.85
2023-05-21T02:28:38.498Z,25.85
2023-05-21T02:29:38.541Z,25.87
2023-05-21T02:30:38.593Z,25.87
2023-05-21T02:31:38.613Z,25.85
2023-05-21T02:32:38.671Z,25.83
2023-05-21T02:33:38.750Z,25.83
2023-05-21T02:34:38.742Z,25.83
2023-05-21T02:35:38.807Z,25.85
2023-05-21T02:36:38.839Z,25.83
2023-05-21T02:37:38.859Z,25.83
2023-05-21T02:38:38.900Z,25.84
2023-05-21T02:39:38.953Z,25.83
2023-05-21T02:40:38.981Z,25.81
2023-05-21T02:41:39.024Z,25.83
2023-05-21T02:42:39.068Z,25.83
2023-05-21T02:43:39.103Z,25.83
2023-05-21T02:44:39.142Z,25.83
2023-05-21T02:45:39.376Z,25.83
2023-05-21T02:46:39.251Z,25.83
2023-05-21T02:47:39.400Z,25.81
2023-05-21T02:48:39.293Z,25.83
2023-05-21T02:49:39.350Z,25.83
2023-05-21T02:50:39.378Z,25.83
2023-05-21T02:51:39.428Z,25.81
2023-05-21T02:52:39.469Z,25.83
2023-05-21T02:53:39.523Z,25.79
2023-05-21T02:54:39.548Z,25.80
2023-05-21T02:55:39.698Z,25.81
2023-05-21T02:56:39.650Z,25.80
2023-05-21T02:57:39.667Z,25.81
2023-05-21T02:58:39.722Z,25.83
2023-05-21T02:59:39.751Z,25.80
2023-05-21T03:00:39.780Z,25.80
2023-05-21T03:01:39.853Z,25.81
2023-05-21T03:02:39.937Z,25.80
2023-05-21T03:03:39.994Z,25.81
2023-05-21T03:04:39.956Z,25.79
2023-05-21T03:05:40.024Z,25.83
2023-05-21T03:06:40.021Z,25.80
2023-05-21T03:07:40.061Z,25.80
2023-05-21T03:08:40.119Z,25.77
2023-05-21T03:09:40.135Z,25.81
2023-05-21T03:10:40.199Z,25.79
2023-05-21T03:11:40.223Z,25.77
2023-05-21T03:12:40.272Z,25.80
2023-05-21T03:13:40.326Z,25.79
2023-05-21T03:14:40.366Z,25.79
2023-05-21T03:15:40.391Z,25.79
2023-05-21T03:16:40.479Z,25.76
2023-05-21T03:17:40.515Z,25.80
2023-05-21T03:18:40.559Z,25.77
2023-05-21T03:19:40.616Z,25.80
2023-05-21T03:20:40.620Z,25.76
2023-05-21T03:21:40.665Z,25.76
2023-05-21T03:22:40.721Z,25.77
2023-05-21T03:23:40.749Z,25.79
2023-05-21T03:24:40.785Z,25.77
2023-05-21T03:25:40.830Z,25.77
2023-05-21T03:26:40.873Z,25.80
2023-05-21T03:27:40.951Z,25.77
2023-05-21T03:28:40.987Z,25.77
2023-05-21T03:29:41.042Z,25.79
2023-05-21T03:30:41.063Z,25.79
2023-05-21T03:31:41.155Z,25.77
2023-05-21T03:32:41.221Z,25.77
2023-05-21T03:33:41.203Z,25.81
2023-05-21T03:34:41.251Z,25.76
2023-05-21T03:35:41.305Z,25.76
2023-05-21T03:36:41.344Z,25.76
2023-05-21T03:37:41.376Z,25.76
2023-05-21T03:38:41.436Z,25.76
2023-05-21T03:39:41.474Z,25.77
2023-05-21T03:40:41.537Z,25.77
2023-05-21T03:41:41.580Z,25.77
2023-05-21T03:42:41.621Z,25.77
2023-05-21T03:43:41.687Z,25.77
2023-05-21T03:44:41.731Z,25.74
2023-05-21T03:45:44.350Z,25.77
2023-05-21T03:46:41.821Z,25.76
2023-05-21T03:47:41.853Z,25.76
2023-05-21T03:48:41.777Z,25.76
2023-05-21T03:49:41.775Z,25.77
2023-05-21T03:50:41.740Z,25.77
2023-05-21T03:51:41.729Z,25.74
2023-05-21T03:52:41.728Z,25.77
2023-05-21T03:53:41.705Z,25.77
2023-05-21T03:54:41.700Z,25.76
2023-05-21T03:55:41.698Z,25.74
2023-05-21T03:56:41.695Z,25.73
2023-05-21T03:57:41.673Z,25.77
2023-05-21T03:58:41.685Z,25.74
2023-05-21T03:59:41.664Z,25.76
2023-05-21T04:00:41.669Z,25.77
2023-05-21T04:01:41.646Z,25.76
2023-05-21T04:02:41.688Z,25.76
2023-05-21T04:03:41.806Z,25.74
2023-05-21T04:04:41.672Z,25.74
2023-05-21T04:05:41.634Z,25.74
2023-05-21T04:06:41.606Z,25.73
2023-05-21T04:07:41.596Z,25.73
2023-05-21T04:08:41.594Z,25.76
2023-05-21T04:09:41.587Z,25.76
2023-05-21T04:10:41.591Z,25.76
2023-05-21T04:11:41.576Z,25.76
2023-05-21T04:12:41.676Z,25.76
2023-05-21T04:13:41.551Z,25.74
2023-05-21T04:14:41.546Z,25.74
2023-05-21T04:15:41.560Z,25.79
2023-05-21T04:16:41.542Z,25.74
2023-05-21T04:17:41.578Z,25.74
2023-05-21T04:18:42.472Z,25.74
2023-05-21T04:19:41.777Z,25.73
2023-05-21T04:20:41.826Z,25.73
2023-05-21T04:21:41.864Z,25.72
2023-05-21T04:22:41.930Z,25.79
2023-05-21T04:23:41.975Z,25.76
2023-05-21T04:24:42.029Z,25.73
2023-05-21T04:25:42.064Z,25.74
2023-05-21T04:26:42.129Z,25.73
2023-05-21T04:27:42.167Z,25.76
2023-05-21T04:28:42.250Z,25.77
2023-05-21T04:29:42.275Z,25.74
2023-05-21T04:30:42.312Z,25.77
2023-05-21T04:31:42.381Z,25.76
2023-05-21T04:32:42.417Z,25.74
2023-05-21T04:33:42.451Z,25.74
2023-05-21T04:34:42.503Z,25.77
2023-05-21T04:35:42.545Z,25.76
2023-05-21T04:36:42.583Z,25.76
2023-05-21T04:37:42.628Z,25.76
2023-05-21T04:38:42.671Z,25.77
2023-05-21T04:39:42.733Z,25.74
2023-05-21T04:40:42.760Z,25.77
2023-05-21T04:41:42.814Z,25.77
2023-05-21T04:42:42.866Z,25.79
2023-05-21T04:43:42.902Z,25.79
2023-05-21T04:44:42.959Z,25.77
2023-05-21T04:45:43.046Z,25.81
2023-05-21T04:46:43.059Z,25.80
2023-05-21T04:47:43.117Z,25.79
2023-05-21T04:48:43.161Z,25.76
2023-05-21T04:49:43.214Z,25.81
2023-05-21T04:50:43.254Z,25.81
2023-05-21T04:51:43.284Z,25.81
2023-05-21T04:52:43.339Z,25.83
2023-05-21T04:53:43.386Z,25.84
2023-05-21T04:54:43.402Z,25.80
2023-05-21T04:55:43.474Z,25.83
2023-05-21T04:56:43.508Z,25.83
2023-05-21T04:57:43.542Z,25.81
2023-05-21T04:58:43.572Z,25.84
2023-05-21T04:59:43.657Z,25.85
2023-05-21T05:00:43.658Z,25.85
2023-05-21T05:01:43.706Z,25.90
2023-05-21T05:02:43.804Z,25.90
2023-05-21T05:03:43.783Z,25.90
2023-05-21T05:04:43.797Z,25.88
2023-05-21T05:05:43.840Z,25.91
2023-05-21T05:06:43.862Z,25.94
2023-05-21T05:07:43.899Z,25.95
2023-05-21T05:08:43.950Z,25.94
2023-05-21T05:09:43.968Z,25.95
2023-05-21T05:10:43.997Z,25.98
2023-05-21T05:11:44.023Z,26.01
2023-05-21T05:12:44.079Z,26.00
2023-05-21T05:13:44.093Z,25.98
2023-05-21T05:14:44.108Z,26.04
2023-05-21T05:15:44.150Z,26.05
2023-05-21T05:16:44.215Z,26.05
2023-05-21T05:17:44.209Z,26.08
2023-05-21T05:18:44.229Z,26.07
2023-05-21T05:19:44.226Z,26.08
2023-05-21T05:20:44.254Z,26.11
2023-05-21T05:21:44.297Z,26.07
2023-05-21T05:22:44.301Z,26.11
2023-05-21T05:23:44.340Z,26.09
2023-05-21T05:24:44.363Z,26.13
2023-05-21T05:25:44.399Z,26.14
2023-05-21T05:26:44.396Z,26.17
2023-05-21T05:27:44.406Z,26.17
2023-05-21T05:28:44.417Z,26.18
2023-05-21T05:29:44.443Z,26.17
2023-05-21T05:30:44.485Z,26.15
2023-05-21T05:31:44.469Z,26.17
2023-05-21T05:32:44.545Z,26.20
2023-05-21T05:33:44.497Z,26.20
2023-05-21T05:34:44.492Z,26.21
2023-05-21T05:35:44.520Z,26.24
2023-05-21T05:36:44.541Z,26.24
2023-05-21T05:37:44.551Z,26.20
2023-05-21T05:38:44.569Z,26.24
2023-05-21T05:39:44.574Z,26.24
2023-05-21T05:40:44.599Z,26.24
2023-05-21T05:41:44.606Z,26.24
2023-05-21T05:42:44.614Z,26.23
2023-05-21T05:43:44.631Z,26.25
2023-05-21T05:44:44.630Z,26.24
2023-05-21T05:45:44.636Z,26.27
2023-05-21T05:46:44.689Z,26.30
2023-05-21T05:47:44.667Z,26.31
2023-05-21T05:48:44.659Z,26.32
2023-05-21T05:49:44.645Z,26.34
2023-05-21T05:50:44.673Z,26.35
2023-05-21T05:51:44.653Z,26.36
2023-05-21T05:52:44.645Z,26.36
2023-05-21T05:53:44.653Z,26.38
2023-05-21T05:54:44.681Z,26.39
2023-05-21T05:55:44.672Z,26.39
2023-05-21T05:56:44.671Z,26.41
2023-05-21T05:57:45.189Z,26.42
2023-05-21T05:58:44.681Z,26.42
2023-05-21T05:59:44.697Z,26.46
2023-05-21T06:00:44.731Z,26.46
2023-05-21T06:01:44.706Z,26.46
2023-05-21T06:02:44.864Z,26.46
2023-05-21T06:03:44.833Z,26.49
2023-05-21T06:04:44.784Z,26.49
2023-05-21T06:05:44.842Z,26.49
2023-05-21T06:06:44.873Z,26.46
2023-05-21T06:07:44.919Z,26.49
2023-05-21T06:08:44.975Z,26.49
2023-05-21T06:09:44.972Z,26.51
2023-05-21T06:10:45.007Z,26.52
2023-05-21T06:11:45.125Z,26.51
2023-05-21T06:12:45.066Z,26.51
2023-05-21T06:13:45.139Z,26.54
2023-05-21T06:14:45.398Z,26.51
2023-05-21T06:15:45.247Z,26.52
2023-05-21T06:16:45.222Z,26.52
2023-05-21T06:17:45.293Z,26.55
2023-05-21T06:18:45.324Z,26.54
2023-05-21T06:19:45.360Z,26.54
2023-05-21T06:20:45.427Z,26.54
2023-05-21T06:21:45.511Z,26.54
2023-05-21T06:22:45.528Z,26.56
2023-05-21T06:23:45.587Z,26.58
2023-05-21T06:24:45.629Z,26.55
2023-05-21T06:25:45.650Z,26.58
2023-05-21T06:26:45.702Z,26.59
2023-05-21T06:27:45.757Z,26.60
2023-05-21T06:28:45.791Z,26.60
2023-05-21T06:29:45.858Z,26.65
2023-05-21T06:30:45.925Z,26.65
2023-05-21T06:31:45.984Z,26.66
2023-05-21T06:32:46.100Z,26.66
2023-05-21T06:33:46.225Z,26.68
2023-05-21T06:34:46.173Z,26.66
2023-05-21T06:35:46.233Z,26.68
2023-05-21T06:36:46.289Z,26.68
2023-05-21T06:37:46.348Z,26.71
2023-05-21T06:38:46.409Z,26.71
2023-05-21T06:39:46.488Z,26.75
2023-05-21T06:40:46.545Z,26.76
2023-05-21T06:41:46.589Z,26.76
2023-05-21T06:42:46.650Z,26.78
2023-05-21T06:43:46.717Z,26.78
2023-05-21T06:44:46.773Z,26.81
2023-05-21T06:45:46.866Z,26.79
2023-05-21T06:46:46.871Z,26.82
2023-05-21T06:47:46.987Z,26.83
2023-05-21T06:48:46.980Z,26.85
2023-05-21T06:49:47.054Z,26.86
2023-05-21T06:50:47.076Z,26.86
2023-05-21T06:51:47.120Z,26.90
2023-05-21T06:52:47.183Z,26.93
2023-05-21T06:53:47.226Z,26.92
2023-05-21T06:54:47.274Z,26.95
2023-05-21T06:55:47.320Z,26.93
2023-05-21T06:56:47.361Z,26.93
2023-05-21T06:57:47.381Z,26.93
2023-05-21T06:58:47.429Z,26.93
2023-05-21T06:59:47.479Z,26.93
2023-05-21T07:00:47.548Z,26.90
2023-05-21T07:01:47.624Z,26.92
2023-05-21T07:02:47.781Z,26.90
2023-05-21T07:03:47.657Z,26.90
2023-05-21T07:04:47.696Z,26.92
2023-05-21T07:05:47.732Z,26.93
2023-05-21T07:06:47.784Z,26.90
2023-05-21T07:07:47.835Z,26.93
2023-05-21T07:08:47.856Z,26.92
2023-05-21T07:09:47.925Z,26.92
2023-05-21T07:10:47.950Z,26.90
2023-05-21T07:11:48.002Z,26.93
2023-05-21T07:12:48.035Z,26.96
2023-05-21T07:13:48.065Z,26.97
2023-05-21T07:14:48.131Z,26.97
2023-05-21T07:15:48.160Z,26.97
2023-05-21T07:16:48.268Z,26.99
2023-05-21T07:17:48.258Z,26.99
2023-05-21T07:18:48.329Z,27.00
2023-05-21T07:19:48.307Z,27.00
2023-05-21T07:20:48.341Z,27.02
2023-05-21T07:21:48.368Z,27.00
2023-05-21T07:22:48.403Z,27.02
2023-05-21T07:23:48.425Z,27.05
2023-05-21T07:24:48.465Z,27.05
2023-05-21T07:25:48.515Z,27.05
2023-05-21T07:26:48.538Z,27.07
2023-05-21T07:27:48.571Z,27.07
2023-05-21T07:28:48.596Z,27.10
2023-05-21T07:29:48.621Z,27.11
2023-05-21T07:30:48.651Z,27.10
2023-05-21T07:31:48.654Z,27.13
2023-05-21T07:32:48.751Z,27.13
2023-05-21T07:33:48.725Z,27.16
2023-05-21T07:34:48.751Z,27.16
2023-05-21T07:35:48.834Z,27.16
2023-05-21T07:36:48.833Z,27.13
2023-05-21T07:37:48.878Z,27.16
2023-05-21T07:38:48.877Z,27.19
2023-05-21T07:39:48.909Z,27.20
2023-05-21T07:40:48.924Z,27.23
2023-05-21T07:41:48.971Z,27.23
2023-05-21T07:42:48.982Z,27.23
2023-05-21T07:43:48.981Z,27.27
2023-05-21T07:44:49.015Z,27.29
2023-05-21T07:45:49.033Z,27.29
2023-05-21T07:46:49.095Z,27.30
2023-05-21T07:47:49.083Z,27.33
2023-05-21T07:48:49.126Z,27.34
2023-05-21T07:49:49.144Z,27.33
2023-05-21T07:50:49.173Z,27.36
2023-05-21T07:51:49.161Z,27.39
2023-05-21T07:52:49.283Z,27.40
2023-05-21T07:53:49.212Z,27.43
2023-05-21T07:54:49.233Z,27.46
2023-05-21T07:55:49.274Z,27.44
2023-05-21T07:56:49.290Z,27.50
2023-05-21T07:57:49.289Z,27.54
2023-05-21T07:58:49.322Z,27.54
2023-05-21T07:59:49.335Z,27.57
2023-05-21T08:00:49.375Z,27.57
2023-05-21T08:01:49.366Z,27.61
2023-05-21T08:02:49.464Z,27.62
2023-05-21T08:03:49.545Z,27.65
2023-05-21T08:04:49.447Z,27.65
2023-05-21T08:05:49.447Z,27.67
2023-05-21T08:06:49.536Z,27.67
2023-05-21T08:07:49.463Z,27.68
2023-05-21T08:08:49.498Z,27.67
2023-05-21T08:09:49.520Z,27.67
2023-05-21T08:10:49.515Z,27.67
2023-05-21T08:11:49.539Z,27.70
2023-05-21T08:12:49.528Z,27.71
2023-05-21T08:13:49.559Z,27.72
2023-05-21T08:14:49.569Z,27.72
2023-05-21T08:15:52.043Z,27.74
2023-05-21T08:16:49.672Z,27.72
2023-05-21T08:17:49.673Z,27.74
2023-05-21T08:18:49.580Z,27.77
2023-05-21T08:19:49.552Z,27.80
2023-05-21T08:20:49.547Z,27.78
2023-05-21T08:21:52.067Z,27.77
2023-05-21T08:22:49.522Z,27.81
2023-05-21T08:23:49.506Z,27.83
2023-05-21T08:24:49.518Z,27.83
2023-05-21T08:25:49.515Z,27.83
2023-05-21T08:26:49.500Z,27.81
2023-05-21T08:27:51.687Z,27.84
2023-05-21T08:28:49.501Z,27.85
2023-05-21T08:29:49.464Z,27.84
2023-05-21T08:30:49.476Z,27.85
2023-05-21T08:31:49.543Z,27.84
2023-05-21T08:32:49.502Z,27.87
2023-05-21T08:33:49.448Z,27.88
2023-05-21T08:34:49.436Z,27.88
2023-05-21T08:35:49.428Z,27.90
2023-05-21T08:36:49.425Z,27.91
2023-05-21T08:37:49.424Z,27.91
2023-05-21T08:38:49.539Z,27.92
2023-05-21T08:39:49.408Z,27.97
2023-05-21T08:40:49.397Z,27.97
2023-05-21T08:41:49.466Z,27.98
2023-05-21T08:42:49.382Z,27.98
2023-05-21T08:43:50.611Z,28.00
2023-05-21T08:44:49.376Z,28.02
2023-05-21T08:45:49.408Z,28.04
2023-05-21T08:46:49.372Z,28.07
2023-05-21T08:47:49.425Z,28.09
2023-05-21T08:48:49.339Z,28.09
2023-05-21T08:49:49.323Z,28.11
2023-05-21T08:50:49.344Z,28.12
2023-05-21T08:51:49.332Z,28.12
2023-05-21T08:52:49.312Z,28.15
2023-05-21T08:53:49.315Z,28.15
2023-05-21T08:54:49.311Z,28.16
2023-05-21T08:55:51.617Z,28.16
2023-05-21T08:56:49.340Z,28.19
2023-05-21T08:57:49.380Z,28.22
2023-05-21T08:58:49.478Z,28.21
2023-05-21T08:59:49.488Z,28.22
2023-05-21T09:00:49.592Z,28.23
2023-05-21T09:01:49.709Z,28.23
2023-05-21T09:02:49.683Z,28.25
2023-05-21T09:03:49.758Z,28.25
2023-05-21T09:04:49.752Z,28.25
2023-05-21T09:05:49.798Z,28.26
2023-05-21T09:06:49.868Z,28.28
2023-05-21T09:07:52.243Z,28.25
2023-05-21T09:08:50.145Z,28.26
2023-05-21T09:09:50.207Z,28.31
2023-05-21T09:10:50.249Z,28.31
2023-05-21T09:11:50.321Z,28.32
2023-05-21T09:12:50.360Z,28.34
2023-05-21T09:13:50.401Z,28.35
2023-05-21T09:14:50.447Z,28.34
2023-05-21T09:15:50.475Z,28.35
2023-05-21T09:16:50.548Z,28.36
2023-05-21T09:17:50.612Z,28.38
2023-05-21T09:18:50.625Z,28.38
2023-05-21T09:19:50.663Z,28.41
2023-05-21T09:20:50.703Z,28.41
2023-05-21T09:21:50.741Z,28.41
2023-05-21T09:22:50.772Z,28.42
2023-05-21T09:23:50.853Z,28.43
2023-05-21T09:24:50.830Z,28.43
2023-05-21T09:25:50.893Z,28.45
2023-05-21T09:26:50.924Z,28.45
2023-05-21T09:27:50.946Z,28.43
2023-05-21T09:28:51.006Z,28.46
2023-05-21T09:29:51.043Z,28.49
2023-05-21T09:30:51.062Z,28.48
2023-05-21T09:31:51.180Z,28.46
2023-05-21T09:32:51.220Z,28.49
2023-05-21T09:33:51.181Z,28.51
2023-05-21T09:34:51.238Z,28.52
2023-05-21T09:35:51.242Z,28.52
2023-05-21T09:36:51.284Z,28.52
2023-05-21T09:37:51.333Z,28.53
2023-05-21T09:38:51.344Z,28.53
2023-05-21T09:39:51.395Z,28.52
2023-05-21T09:40:51.409Z,28.53
2023-05-21T09:41:51.455Z,28.56
2023-05-21T09:42:51.482Z,28.55
2023-05-21T09:43:51.553Z,28.55
2023-05-21T09:44:51.557Z,28.56
2023-05-21T09:45:51.634Z,28.56
2023-05-21T09:46:51.618Z,28.56
2023-05-21T09:47:51.662Z,28.56
2023-05-21T09:48:51.663Z,28.59
2023-05-21T09:49:51.697Z,28.56
2023-05-21T09:50:51.716Z,28.59
2023-05-21T09:51:51.740Z,28.59
2023-05-21T09:52:51.781Z,28.60
2023-05-21T09:53:51.805Z,28.56
2023-05-21T09:54:51.842Z,28.60
2023-05-21T09:55:51.894Z,28.63
2023-05-21T09:56:51.884Z,28.62
2023-05-21T09:57:51.936Z,28.59
2023-05-21T09:58:51.951Z,28.60
2023-05-21T09:59:52.007Z,28.60
2023-05-21T10:00:52.010Z,28.62
2023-05-21T10:01:52.208Z,28.63
2023-05-21T10:02:52.132Z,28.64
2023-05-21T10:03:52.102Z,28.64
2023-05-21T10:04:52.171Z,28.63
2023-05-21T10:05:52.136Z,28.67
2023-05-21T10:06:52.150Z,28.66
2023-05-21T10:07:52.175Z,28.67
2023-05-21T10:08:52.192Z,28.69
2023-05-21T10:09:52.231Z,28.69
2023-05-21T10:10:52.240Z,28.70
2023-05-21T10:11:52.242Z,28.72
2023-05-21T10:12:52.260Z,28.73
2023-05-21T10:13:52.286Z,28.73
2023-05-21T10:14:52.327Z,28.74
2023-05-21T10:15:52.326Z,28.72
2023-05-21T10:16:52.331Z,28.74
2023-05-21T10:17:52.387Z,28.72
2023-05-21T10:18:52.421Z,28.74
2023-05-21T10:19:52.409Z,28.73
2023-05-21T10:20:52.415Z,28.73
2023-05-21T10:21:52.795Z,28.74
2023-05-21T10:22:52.482Z,28.74
2023-05-21T10:23:52.463Z,28.74
2023-05-21T10:24:52.482Z,28.74
2023-05-21T10:25:52.500Z,28.76
2023-05-21T10:26:52.496Z,28.74
2023-05-21T10:27:52.521Z,28.76
2023-05-21T10:28:52.540Z,28.77
2023-05-21T10:29:52.535Z,28.76
2023-05-21T10:30:52.554Z,28.74
2023-05-21T10:31:52.671Z,28.76
2023-05-21T10:32:52.718Z,28.77
2023-05-21T10:33:52.604Z,28.77
2023-05-21T10:34:52.633Z,28.76
2023-05-21T10:35:53.380Z,28.74
2023-05-21T10:36:52.641Z,28.72
2023-05-21T10:37:52.640Z,28.74
2023-05-21T10:38:52.660Z,28.70
2023-05-21T10:39:52.676Z,28.72
2023-05-21T10:40:52.696Z,28.70
2023-05-21T10:41:54.417Z,28.69
2023-05-21T10:42:52.723Z,28.69
2023-05-21T10:43:52.764Z,28.66
2023-05-21T10:44:52.752Z,28.67
2023-05-21T10:45:52.807Z,28.66
2023-05-21T10:46:52.803Z,28.67
2023-05-21T10:47:54.300Z,28.69
2023-05-21T10:48:52.856Z,28.69
2023-05-21T10:49:52.845Z,28.70
2023-05-21T10:50:52.845Z,28.69
2023-05-21T10:51:52.859Z,28.69
2023-05-21T10:52:52.866Z,28.70
2023-05-21T10:53:52.887Z,28.69
2023-05-21T10:54:52.938Z,28.69
2023-05-21T10:55:52.933Z,28.69
2023-05-21T10:56:52.932Z,28.67
2023-05-21T10:57:52.948Z,28.66
2023-05-21T10:58:52.957Z,28.66
2023-05-21T10:59:52.969Z,28.64
2023-05-21T11:00:53.034Z,28.63
2023-05-21T11:01:53.059Z,28.60
2023-05-21T11:02:53.190Z,28.62
2023-05-21T11:03:53.059Z,28.60
2023-05-21T11:04:53.064Z,28.63
2023-05-21T11:05:53.077Z,28.60
2023-05-21T11:06:53.117Z,28.63
2023-05-21T11:07:53.158Z,28.60
2023-05-21T11:08:55.090Z,28.62
2023-05-21T11:09:53.224Z,28.56
2023-05-21T11:10:53.242Z,28.59
2023-05-21T11:11:53.238Z,28.60
2023-05-21T11:12:53.256Z,28.62
2023-05-21T11:13:53.279Z,28.62
2023-05-21T11:14:53.292Z,28.62
2023-05-21T11:15:53.331Z,28.60
2023-05-21T11:16:53.364Z,28.64
2023-05-21T11:17:53.404Z,28.64
2023-05-21T11:18:53.368Z,28.62
2023-05-21T11:19:53.387Z,28.62
2023-05-21T11:20:53.398Z,28.62
2023-05-21T11:21:53.407Z,28.62
2023-05-21T11:22:53.436Z,28.60
2023-05-21T11:23:53.460Z,28.60
2023-05-21T11:24:53.466Z,28.58
2023-05-21T11:25:53.502Z,28.60
2023-05-21T11:26:53.511Z,28.59
2023-05-21T11:27:53.525Z,28.59
2023-05-21T11:28:53.527Z,28.59
2023-05-21T11:29:53.550Z,28.60
2023-05-21T11:30:53.633Z,28.59
2023-05-21T11:31:53.581Z,28.59
2023-05-21T11:32:53.697Z,28.58
2023-05-21T11:33:53.617Z,28.60
2023-05-21T11:34:53.615Z,28.58
2023-05-21T11:35:53.649Z,28.59
2023-05-21T11:36:53.676Z,28.58
2023-05-21T11:37:53.656Z,28.56
2023-05-21T11:38:53.694Z,28.55
2023-05-21T11:39:53.716Z,28.55
2023-05-21T11:40:53.732Z,28.58
2023-05-21T11:41:53.793Z,28.53
2023-05-21T11:42:53.780Z,28.53
2023-05-21T11:43:53.773Z,28.53
2023-05-21T11:44:53.799Z,28.52
2023-05-21T11:45:53.863Z,28.48
2023-05-21T11:46:53.919Z,28.48
2023-05-21T11:47:53.924Z,28.49
2023-05-21T11:48:53.891Z,28.46
2023-05-21T11:49:53.913Z,28.46
2023-05-21T11:50:53.951Z,28.42
2023-05-21T11:51:53.954Z,28.46
2023-05-21T11:52:53.981Z,28.48
2023-05-21T11:53:54.020Z,28.45
2023-05-21T11:54:54.046Z,28.46
2023-05-21T11:55:54.070Z,28.48
2023-05-21T11:56:54.075Z,28.51
2023-05-21T11:57:54.113Z,28.48
2023-05-21T11:58:54.134Z,28.49
2023-05-21T11:59:54.157Z,28.51
2023-05-21T12:00:54.205Z,28.48
2023-05-21T12:01:54.214Z,28.49
2023-05-21T12:02:54.415Z,28.49
2023-05-21T12:03:54.257Z,28.51
2023-05-21T12:04:54.247Z,28.48
2023-05-21T12:05:54.306Z,28.48
2023-05-21T12:06:54.282Z,28.46
2023-05-21T12:07:54.290Z,28.46
2023-05-21T12:08:54.329Z,28.46
2023-05-21T12:09:54.406Z,28.46
2023-05-21T12:10:54.394Z,28.45
2023-05-21T12:11:54.415Z,28.45
2023-05-21T12:12:56.237Z,28.42
2023-05-21T12:13:54.452Z,28.42
2023-05-21T12:14:54.450Z,28.39
2023-05-21T12:15:54.470Z,28.39
2023-05-21T12:16:54.500Z,28.39
2023-05-21T12:17:54.486Z,28.41
2023-05-21T12:18:54.443Z,28.35
2023-05-21T12:19:54.398Z,28.35
2023-05-21T12:20:54.408Z,28.38
2023-05-21T12:21:54.390Z,28.34
2023-05-21T12:22:54.413Z,28.36
2023-05-21T12:23:54.380Z,28.34
2023-05-21T12:24:54.372Z,28.34
2023-05-21T12:25:54.402Z,28.35
2023-05-21T12:26:54.321Z,28.35
2023-05-21T12:27:54.328Z,28.32
2023-05-21T12:28:54.314Z,28.32
2023-05-21T12:29:54.311Z,28.32
2023-05-21T12:30:54.318Z,28.32
2023-05-21T12:31:54.355Z,28.31
2023-05-21T12:32:54.369Z,28.31
2023-05-21T12:33:54.300Z,28.34
2023-05-21T12:34:54.306Z,28.28
2023-05-21T12:35:54.463Z,28.29
2023-05-21T12:36:54.298Z,28.29
2023-05-21T12:37:54.266Z,28.26
2023-05-21T12:38:54.269Z,28.28
2023-05-21T12:39:54.269Z,28.26
2023-05-21T12:40:54.235Z,28.26
2023-05-21T12:41:54.243Z,28.29
2023-05-21T12:42:54.215Z,28.26
2023-05-21T12:43:54.210Z,28.23
2023-05-21T12:44:54.233Z,28.25
2023-05-21T12:45:54.248Z,28.22
2023-05-21T12:46:54.332Z,28.21
2023-05-21T12:47:54.209Z,28.22
2023-05-21T12:48:54.192Z,28.21
2023-05-21T12:49:55.312Z,28.22
2023-05-21T12:50:54.182Z,28.21
2023-05-21T12:51:54.179Z,28.19
2023-05-21T12:52:54.177Z,28.18